createdAt,value
2023-03-22T00:03:02.284Z,3.63
2023-03-22T00:07:05.821Z,4.30
2023-03-22T00:11:12.877Z,3.30
2023-03-22T00:15:16.437Z,3.20
2023-03-22T00:19:20.338Z,2.37
2023-03-22T00:23:24.528Z,3.27
2023-03-22T00:27:29.631Z,3.47
2023-03-22T00:31:33.608Z,3.27
2023-03-22T00:35:38.070Z,3.10
2023-03-22T00:39:41.648Z,3.90
2023-03-22T00:43:47.872Z,3.20
2023-03-22T00:47:51.432Z,2.50
2023-03-22T00:51:55.632Z,3.03
2023-03-22T00:55:59.165Z,3.13
2023-03-22T01:00:16.266Z,2.90
2023-03-22T01:04:29.264Z,2.80
2023-03-22T01:08:33.686Z,3.50
2023-03-22T01:12:38.112Z,3.33
2023-03-22T01:16:43.470Z,3.20
2023-03-22T01:20:47.715Z,3.10
2023-03-22T01:24:51.644Z,2.67
2023-03-22T01:28:55.612Z,2.80
2023-03-22T01:33:00.523Z,3.07
2023-03-22T01:37:04.364Z,3.20
2023-03-22T01:41:09.360Z,2.97
2023-03-22T01:45:37.260Z,2.70
2023-03-22T01:49:42.640Z,2.80
2023-03-22T01:53:50.946Z,4.10
2023-03-22T01:57:55.552Z,3.23
2023-03-22T02:02:02.963Z,3.60
2023-03-22T02:06:09.776Z,2.77
2023-03-22T02:10:17.526Z,3.40
2023-03-22T02:14:48.865Z,2.90
2023-03-22T02:19:05.099Z,3.47
2023-03-22T02:23:45.985Z,2.90
2023-03-22T02:28:24.348Z,2.43
2023-03-22T02:33:09.917Z,3.00
2023-03-22T02:37:38.701Z,2.50
2023-03-22T02:41:52.913Z,3.10
2023-03-22T02:46:05.983Z,3.37
2023-03-22T02:50:16.197Z,3.07
2023-03-22T02:54:23.957Z,3.00
2023-03-22T02:58:32.268Z,3.13
2023-03-22T03:02:37.957Z,3.03
2023-03-22T03:06:47.412Z,3.27
2023-03-22T03:10:51.676Z,3.33
2023-03-22T03:15:15.166Z,3.47
2023-03-22T03:19:24.742Z,3.80
2023-03-22T03:23:36.400Z,4.70
2023-03-22T03:27:49.963Z,3.80
2023-03-22T03:32:02.941Z,4.00
2023-03-22T03:36:11.926Z,3.30
2023-03-22T03:40:19.811Z,3.70
2023-03-22T03:44:24.142Z,3.57
2023-03-22T03:48:31.452Z,3.60
2023-03-22T03:52:36.605Z,3.20
2023-03-22T03:56:40.796Z,3.00
2023-03-22T04:00:46.366Z,2.70
2023-03-22T04:04:51.487Z,3.93
2023-03-22T04:08:56.745Z,3.67
2023-03-22T04:13:00.248Z,2.90
2023-03-22T04:17:03.942Z,3.20
2023-03-22T04:21:09.267Z,3.03
2023-03-22T04:25:18.198Z,2.60
2023-03-22T04:29:22.206Z,3.20
2023-03-22T04:33:26.438Z,4.17
2023-03-22T04:37:32.060Z,3.33
2023-03-22T04:41:36.649Z,2.63
2023-03-22T04:45:42.604Z,3.10
2023-03-22T04:49:46.182Z,3.40
2023-03-22T04:53:51.339Z,3.23
2023-03-22T04:57:55.421Z,3.33
2023-03-22T05:01:59.072Z,3.60
2023-03-22T05:06:04.250Z,2.90
2023-03-22T05:10:10.433Z,3.03
2023-03-22T05:14:14.019Z,3.47
2023-03-22T05:18:20.645Z,3.60
2023-03-22T05:22:25.322Z,3.57
2023-03-22T05:26:30.225Z,3.10
2023-03-22T05:30:34.421Z,3.73
2023-03-22T05:34:38.169Z,3.30
2023-03-22T05:38:41.848Z,3.17
2023-03-22T05:42:47.035Z,3.90
2023-03-22T05:46:50.625Z,3.30
2023-03-22T05:50:55.561Z,4.10
2023-03-22T05:54:59.377Z,3.50
2023-03-22T05:59:06.145Z,3.90
2023-03-22T06:03:10.226Z,3.50
2023-03-22T06:07:15.612Z,3.30
2023-03-22T06:11:21.282Z,3.30
2023-03-22T06:15:27.643Z,3.73
2023-03-22T06:19:31.463Z,4.10
2023-03-22T06:23:35.141Z,7.77
2023-03-22T06:27:38.608Z,7.60
2023-03-22T06:31:43.532Z,6.80
2023-03-22T06:35:47.362Z,5.50
2023-03-22T06:39:51.493Z,6.50
2023-03-22T06:43:55.092Z,6.23
2023-03-22T06:48:00.124Z,4.97
2023-03-22T06:52:04.299Z,4.97
2023-03-22T06:56:08.746Z,4.23
2023-03-22T07:00:13.921Z,4.90
2023-03-22T07:04:20.247Z,5.73
2023-03-22T07:08:23.915Z,5.03
2023-03-22T07:12:27.565Z,4.50
2023-03-22T07:16:31.571Z,3.77
2023-03-22T07:20:38.939Z,4.20
2023-03-22T07:24:55.804Z,4.10
2023-03-22T07:29:01.356Z,4.37
2023-03-22T07:33:05.170Z,3.80
2023-03-22T07:37:11.429Z,4.40
2023-03-22T07:41:14.928Z,4.63
2023-03-22T07:45:18.734Z,4.50
2023-03-22T07:49:22.408Z,3.63
2023-03-22T07:53:27.945Z,4.40
2023-03-22T07:57:31.824Z,3.83
2023-03-22T08:01:35.603Z,4.10
2023-03-22T08:05:42.936Z,4.30
2023-03-22T08:09:48.114Z,4.63
2023-03-22T08:13:51.785Z,4.27
2023-03-22T08:17:58.027Z,3.90
2023-03-22T08:22:02.182Z,4.87
2023-03-22T08:26:07.550Z,4.03
2023-03-22T08:30:12.220Z,3.47
2023-03-22T08:34:15.917Z,4.00
2023-03-22T08:38:20.622Z,3.60
2023-03-22T08:42:26.160Z,4.60
2023-03-22T08:46:29.723Z,3.93
2023-03-22T08:50:34.538Z,3.83
2023-03-22T08:54:38.379Z,4.17
2023-03-22T08:58:46.674Z,4.00
2023-03-22T09:02:50.409Z,3.90
2023-03-22T09:06:54.145Z,4.67
2023-03-22T09:10:57.652Z,4.37
2023-03-22T09:15:03.102Z,3.53
2023-03-22T09:19:06.726Z,4.57
2023-03-22T09:23:10.430Z,3.80
2023-03-22T09:27:13.950Z,3.20
2023-03-22T09:31:20.561Z,4.00
2023-03-22T09:35:24.733Z,3.53
2023-03-22T09:39:28.893Z,3.60
2023-03-22T09:43:36.218Z,4.50
2023-03-22T09:47:47.015Z,4.30
2023-03-22T09:51:51.848Z,5.13
2023-03-22T09:56:02.344Z,4.50
2023-03-22T10:00:16.600Z,4.80
2023-03-22T10:04:37.751Z,5.20
2023-03-22T10:08:51.797Z,6.33
2023-03-22T10:13:01.449Z,6.23
2023-03-22T10:17:11.670Z,7.60
2023-03-22T10:21:18.709Z,5.60
2023-03-22T10:25:26.215Z,6.40
2023-03-22T10:29:35.831Z,6.77
2023-03-22T10:33:50.256Z,6.50
2023-03-22T10:37:57.425Z,5.73
2023-03-22T10:42:03.974Z,5.70
2023-03-22T10:46:14.027Z,6.40
2023-03-22T10:50:22.408Z,6.40
2023-03-22T10:54:28.032Z,6.67
2023-03-22T10:58:33.217Z,5.07
2023-03-22T11:02:45.257Z,6.77
2023-03-22T11:06:54.754Z,6.23
2023-03-22T11:11:01.434Z,6.70
2023-03-22T11:15:06.109Z,5.67
2023-03-22T11:19:18.174Z,5.87
2023-03-22T11:23:22.981Z,6.07
2023-03-22T11:27:33.298Z,5.83
2023-03-22T11:31:55.140Z,4.87
2023-03-22T11:36:01.247Z,5.00
2023-03-22T11:40:11.022Z,5.27
2023-03-22T11:44:18.935Z,4.10
2023-03-22T11:48:27.461Z,3.27
2023-03-22T11:52:31.452Z,4.40
2023-03-22T11:56:35.515Z,2.63
2023-03-22T12:00:43.063Z,2.27
2023-03-22T12:04:51.857Z,2.47
2023-03-22T12:08:59.904Z,3.77
2023-03-22T12:13:06.806Z,3.80
2023-03-22T12:17:17.030Z,2.90
2023-03-22T12:21:20.593Z,2.47
2023-03-22T12:25:29.229Z,3.33
2023-03-22T12:29:34.799Z,2.77
2023-03-22T12:33:45.655Z,2.10
2023-03-22T12:37:53.080Z,2.30
2023-03-22T12:42:01.721Z,2.87
2023-03-22T12:46:07.536Z,2.27
2023-03-22T12:50:18.730Z,2.20
2023-03-22T12:54:25.202Z,2.30
2023-03-22T12:58:29.348Z,1.63
2023-03-22T13:02:35.552Z,2.30
2023-03-22T13:06:59.392Z,2.40
2023-03-22T13:11:05.286Z,2.60
2023-03-22T13:15:41.202Z,2.30
2023-03-22T13:19:55.112Z,2.40
2023-03-22T13:24:04.966Z,2.27
2023-03-22T13:28:24.803Z,2.30
2023-03-22T13:32:33.424Z,2.07
2023-03-22T13:36:37.632Z,2.07
2023-03-22T13:40:50.974Z,1.70
2023-03-22T13:44:58.732Z,1.80
2023-03-22T13:49:34.221Z,1.40
2023-03-22T13:53:38.589Z,1.40
2023-03-22T13:58:00.258Z,1.70
2023-03-22T14:02:11.345Z,1.70
2023-03-22T14:06:20.605Z,1.40
2023-03-22T14:10:28.396Z,2.10
2023-03-22T14:14:43.019Z,1.63
2023-03-22T14:18:48.912Z,1.70
